Time;durP1;ratioP1;P1;durP2;ratioP2;P2;SDS_P1;SDS_P2;PMS_P1;PMS_P2;Temp;Humidity;BMP_temperature;BMP_pressure;BME280_temperature;BME280_humidity;BME280_pressure;Samples;Min_cycle;Max_cycle;Signal;HPM_P1;HPM_P2
2023/01/09 00:01:41;;;;;;;3.57;2.93;;;5.10;1.00;;;;;;4986559;28;20188;-79
2023/01/09 00:04:08;;;;;;;3.10;2.80;;;5.00;1.00;;;;;;4987063;28;20181;-78
2023/01/09 00:06:34;;;;;;;3.20;2.70;;;5.10;1.00;;;;;;4988627;28;20215;-78
2023/01/09 00:09:00;;;;;;;2.97;2.73;;;5.10;1.00;;;;;;4988303;28;20249;-78
2023/01/09 00:11:26;;;;;;;3.53;2.80;;;5.00;1.00;;;;;;4987612;28;20203;-77
2023/01/09 00:13:51;;;;;;;3.47;3.10;;;5.00;1.00;;;;;;4988856;28;20650;-79
2023/01/09 00:16:17;;;;;;;3.03;2.73;;;4.90;75.10;;;;;;4989748;28;20275;-79
2023/01/09 00:18:43;;;;;;;4.67;3.07;;;4.80;99.90;;;;;;4987869;28;20200;-80
2023/01/09 00:21:11;;;;;;;2.97;2.67;;;4.80;99.90;;;;;;4989331;28;20184;-80
2023/01/09 00:23:36;;;;;;;3.47;3.00;;;4.80;99.90;;;;;;4988845;28;20188;-79
2023/01/09 00:26:09;;;;;;;2.90;2.70;;;4.70;1.00;;;;;;4989624;28;20211;-81
2023/01/09 00:28:35;;;;;;;3.00;2.63;;;4.70;99.90;;;;;;5004592;28;20211;-78
2023/01/09 00:31:02;;;;;;;3.60;3.10;;;4.80;99.90;;;;;;4979294;28;20186;-82
2023/01/09 00:33:31;;;;;;;3.30;3.00;;;4.90;99.90;;;;;;4989032;28;20188;-78
2023/01/09 00:35:57;;;;;;;3.50;3.17;;;5.00;99.90;;;;;;4988830;28;20643;-77
2023/01/09 00:38:23;;;;;;;4.20;3.00;;;5.00;99.90;;;;;;4987696;28;20215;-79
2023/01/09 00:40:48;;;;;;;3.00;2.80;;;5.00;99.90;;;;;;4989749;28;20185;-79
2023/01/09 00:43:14;;;;;;;3.57;3.27;;;5.00;99.90;;;;;;4989627;28;20243;-81
2023/01/09 00:45:40;;;;;;;3.60;3.13;;;5.00;99.90;;;;;;4991975;28;20208;-82
2023/01/09 00:48:13;;;;;;;3.53;3.00;;;5.00;1.00;;;;;;4993518;28;20219;-77
2023/01/09 00:50:39;;;;;;;3.50;3.20;;;5.00;99.90;;;;;;4993230;28;20308;-77
2023/01/09 00:53:14;;;;;;;4.30;3.60;;;5.00;1.00;;;;;;4992132;28;20181;-79
2023/01/09 00:55:40;;;;;;;3.50;3.20;;;4.90;1.00;;;;;;4992775;28;20198;-78
2023/01/09 00:58:06;;;;;;;3.77;3.47;;;5.00;1.00;;;;;;4991464;28;20295;-81
2023/01/09 01:00:32;;;;;;;3.97;3.57;;;5.00;1.00;;;;;;4991626;28;20600;-77
2023/01/09 01:02:57;;;;;;;3.87;3.47;;;5.10;1.00;;;;;;4992182;28;20208;-77
2023/01/09 01:08:11;;;;;;;3.40;3.10;;;5.10;1.00;;;;;;4992904;28;20223;-78
2023/01/09 01:10:37;;;;;;;3.97;3.57;;;5.10;1.00;;;;;;4991315;28;20701;-80
2023/01/09 01:13:02;;;;;;;3.90;3.60;;;5.40;1.00;;;;;;4990966;28;20180;-78
2023/01/09 01:15:28;;;;;;;3.70;3.20;;;5.50;99.90;;;;;;4992963;28;20679;-79
2023/01/09 01:17:54;;;;;;;3.30;2.83;;;5.60;99.90;;;;;;4990980;28;20235;-77
2023/01/09 01:20:20;;;;;;;3.60;3.30;;;5.60;99.90;;;;;;4991452;28;20262;-78
2023/01/09 01:22:46;;;;;;;3.00;2.70;;;5.60;99.90;;;;;;4992431;28;20588;-79
2023/01/09 01:25:13;;;;;;;3.23;2.93;;;5.70;99.90;;;;;;4991068;28;20201;-78
2023/01/09 01:27:39;;;;;;;3.40;3.10;;;5.80;16.70;;;;;;4992916;28;20206;-79
2023/01/09 01:30:06;;;;;;;3.03;2.73;;;5.80;1.00;;;;;;4991929;28;20188;-80
2023/01/09 01:32:31;;;;;;;3.40;3.10;;;5.80;1.00;;;;;;4990156;28;20677;-77
2023/01/09 01:34:57;;;;;;;3.20;2.90;;;5.80;1.00;;;;;;4991243;28;20192;-79
2023/01/09 01:37:23;;;;;;;2.93;2.73;;;5.90;1.00;;;;;;4989971;28;20460;-77
2023/01/09 01:39:50;;;;;;;3.27;2.97;;;5.90;1.00;;;;;;4989562;28;20180;-77
2023/01/09 01:42:15;;;;;;;3.90;3.60;;;5.90;1.00;;;;;;5005119;28;20191;-79
2023/01/09 01:45:02;;;;;;;3.60;3.30;;;5.90;1.00;;;;;;4989859;28;20188;-78
2023/01/09 01:47:49;;;;;;;2.93;2.73;;;5.90;1.00;;;;;;4988898;28;20314;-79
2023/01/09 01:50:27;;;;;;;2.93;2.73;;;5.80;1.00;;;;;;4997091;28;21140;-79
2023/01/09 01:53:07;;;;;;;3.27;2.97;;;5.80;1.00;;;;;;4980426;28;20204;-79
2023/01/09 01:55:37;;;;;;;3.30;3.00;;;5.90;1.00;;;;;;5004192;28;20188;-76
2023/01/09 01:58:06;;;;;;;3.53;3.23;;;5.90;1.00;;;;;;4990383;28;20208;-78
2023/01/09 02:00:41;;;;;;;3.30;3.10;;;5.90;1.00;;;;;;4989049;28;20267;-78
2023/01/09 02:03:07;;;;;;;3.63;2.93;;;5.90;1.00;;;;;;4990125;28;20192;-78
2023/01/09 02:05:35;;;;;;;3.10;2.80;;;6.00;1.00;;;;;;4990064;28;20709;-78
2023/01/09 02:08:00;;;;;;;3.40;2.60;;;6.00;1.00;;;;;;4988620;28;20271;-80
2023/01/09 02:10:26;;;;;;;2.90;2.70;;;6.10;1.00;;;;;;4990533;28;20204;-80
2023/01/09 02:12:52;;;;;;;2.70;2.50;;;6.20;1.00;;;;;;4988482;28;20183;-80
2023/01/09 02:15:19;;;;;;;3.20;2.90;;;6.20;1.00;;;;;;4989354;28;20187;-78
2023/01/09 02:18:06;;;;;;;3.17;2.60;;;6.10;1.00;;;;;;4990503;28;20270;-81
2023/01/09 02:21:08;;;;;;;3.20;3.00;;;6.10;1.00;;;;;;4990953;28;20184;-79
2023/01/09 02:23:45;;;;;;;3.20;2.80;;;6.10;1.00;;;;;;4985882;28;20222;-78
2023/01/09 02:26:31;;;;;;;3.87;2.67;;;6.10;1.00;;;;;;4990974;28;20263;-78
2023/01/09 02:29:14;;;;;;;3.30;3.00;;;6.10;1.00;;;;;;4991420;28;20192;-82
2023/01/09 02:32:06;;;;;;;3.23;2.87;;;6.10;1.00;;;;;;4991431;28;20176;-80
2023/01/09 02:34:38;;;;;;;3.50;2.90;;;6.10;1.00;;;;;;4990160;28;20242;-79
2023/01/09 02:37:24;;;;;;;3.33;2.90;;;6.00;25.30;;;;;;4990632;28;20235;-77
2023/01/09 02:40:13;;;;;;;3.63;3.20;;;6.00;43.40;;;;;;4989372;28;20634;-79
2023/01/09 02:42:42;;;;;;;4.00;3.40;;;6.10;12.60;;;;;;4987352;28;20256;-80
2023/01/09 02:45:08;;;;;;;4.10;3.70;;;6.00;49.40;;;;;;4993466;28;20188;-79
2023/01/09 02:47:42;;;;;;;3.73;3.40;;;6.10;1.00;;;;;;4991022;28;20208;-78
2023/01/09 02:50:12;;;;;;;3.53;3.23;;;6.10;1.00;;;;;;4990169;28;20242;-80
2023/01/09 02:53:02;;;;;;;6.27;3.80;;;6.10;1.00;;;;;;4989010;28;20180;-78
2023/01/09 02:56:08;;;;;;;3.60;3.30;;;6.00;1.00;;;;;;4989289;28;20183;-78
2023/01/09 02:58:40;;;;;;;3.87;3.50;;;6.00;75.10;;;;;;4982925;28;20191;-78
2023/01/09 03:01:32;;;;;;;3.63;3.33;;;6.00;67.70;;;;;;4981466;28;20180;-80
2023/01/09 03:04:09;;;;;;;4.60;4.20;;;6.00;99.90;;;;;;4990659;28;20267;-77
2023/01/09 03:06:56;;;;;;;3.57;3.27;;;5.90;99.90;;;;;;5004338;28;20235;-80
2023/01/09 03:09:26;;;;;;;5.10;4.27;;;6.00;99.90;;;;;;4990203;28;20191;-79
2023/01/09 03:12:01;;;;;;;4.07;3.30;;;5.90;1.00;;;;;;4990891;28;20262;-79
2023/01/09 03:14:30;;;;;;;4.70;3.80;;;8.10;1.00;;;;;;4984109;28;20266;-78
2023/01/09 03:17:01;;;;;;;4.77;4.13;;;6.00;1.00;;;;;;4989452;28;20266;-78
2023/01/09 03:19:29;;;;;;;4.93;4.07;;;6.00;1.00;;;;;;4990477;28;20188;-78
2023/01/09 03:21:56;;;;;;;4.33;3.93;;;6.00;1.00;;;;;;4992235;28;20184;-80
2023/01/09 03:24:21;;;;;;;4.33;3.60;;;5.90;1.00;;;;;;4990698;28;20193;-78
2023/01/09 03:26:47;;;;;;;5.37;4.23;;;5.90;1.00;;;;;;4990708;28;20208;-79
2023/01/09 03:29:12;;;;;;;3.93;3.53;;;5.90;99.90;;;;;;4991213;28;20195;-78
2023/01/09 03:31:38;;;;;;;4.30;3.90;;;5.90;99.90;;;;;;4992623;28;20318;-77
2023/01/09 03:34:04;;;;;;;4.60;3.93;;;6.00;99.90;;;;;;4993521;28;20195;-76
2023/01/09 03:36:29;;;;;;;5.33;3.90;;;5.90;99.90;;;;;;4992789;28;20204;-78
2023/01/09 03:38:55;;;;;;;4.23;3.77;;;5.90;99.90;;;;;;4993524;28;20208;-80
2023/01/09 03:41:20;;;;;;;4.10;3.70;;;6.00;99.90;;;;;;4992352;28;20218;-78
2023/01/09 03:43:47;;;;;;;4.40;4.00;;;6.00;99.90;;;;;;4993813;28;20189;-77
2023/01/09 03:46:14;;;;;;;4.33;3.93;;;6.10;99.90;;;;;;4992873;28;20215;-78
2023/01/09 03:48:39;;;;;;;5.53;4.63;;;6.10;99.90;;;;;;4993410;28;20267;-79
2023/01/09 03:51:05;;;;;;;5.67;4.50;;;6.10;99.90;;;;;;4991981;28;20889;-79
2023/01/09 03:53:30;;;;;;;4.00;3.70;;;6.10;99.90;;;;;;4993038;28;20251;-77
2023/01/09 03:55:57;;;;;;;4.43;4.03;;;6.10;99.90;;;;;;4993458;28;20686;-77
2023/01/09 03:58:24;;;;;;;4.73;4.30;;;6.10;99.90;;;;;;4993263;28;20212;-78
2023/01/09 04:00:51;;;;;;;4.27;3.87;;;6.10;99.90;;;;;;4993774;28;20196;-78
2023/01/09 04:03:18;;;;;;;4.60;4.20;;;6.00;99.90;;;;;;4992724;28;20254;-81
2023/01/09 04:05:46;;;;;;;5.03;4.50;;;6.00;99.90;;;;;;4993324;28;20297;-79
2023/01/09 04:08:12;;;;;;;5.00;4.50;;;6.00;99.90;;;;;;4992000;28;20631;-80
2023/01/09 04:10:38;;;;;;;4.33;3.93;;;6.00;1.00;;;;;;4992006;28;20211;-77
2023/01/09 04:13:04;;;;;;;5.10;4.60;;;6.00;1.00;;;;;;4993905;28;20680;-78
2023/01/09 04:15:30;;;;;;;8.00;6.17;;;6.00;1.00;;;;;;4991520;28;20247;-78
2023/01/09 04:17:55;;;;;;;7.17;5.33;;;5.90;1.00;;;;;;4992724;28;20210;-79
2023/01/09 04:20:21;;;;;;;5.40;4.90;;;5.80;99.90;;;;;;4997259;28;20227;-79
2023/01/09 04:22:46;;;;;;;6.87;6.27;;;5.90;99.90;;;;;;4995568;28;20766;-78
2023/01/09 04:25:12;;;;;;;6.07;5.20;;;5.90;1.00;;;;;;4995805;28;20723;-78
2023/01/09 04:27:38;;;;;;;5.70;5.20;;;5.90;1.00;;;;;;4996027;28;21294;-78
2023/01/09 04:30:04;;;;;;;5.90;5.20;;;6.00;1.00;;;;;;4996520;28;20184;-78
2023/01/09 04:32:30;;;;;;;4.97;4.57;;;6.00;1.00;;;;;;4996322;28;20184;-77
2023/01/09 04:34:56;;;;;;;6.23;5.40;;;6.00;1.00;;;;;;4996549;28;20676;-78
2023/01/09 04:37:22;;;;;;;5.17;4.67;;;6.00;1.00;;;;;;4996175;28;20212;-78
2023/01/09 04:39:50;;;;;;;6.10;5.50;;;6.00;1.00;;;;;;4998007;28;20211;-77
2023/01/09 04:42:15;;;;;;;5.73;5.23;;;6.00;1.00;;;;;;4996917;28;20188;-78
2023/01/09 04:44:41;;;;;;;5.93;5.33;;;6.00;1.00;;;;;;4998298;28;20686;-76
2023/01/09 04:47:06;;;;;;;5.87;5.27;;;6.00;1.00;;;;;;4996381;28;20227;-81
2023/01/09 04:49:32;;;;;;;5.63;5.13;;;6.00;1.00;;;;;;4991857;28;20185;-78
2023/01/09 04:51:58;;;;;;;6.53;5.83;;;5.90;1.00;;;;;;4994068;28;20188;-78
2023/01/09 04:54:23;;;;;;;6.43;5.83;;;5.80;1.00;;;;;;4997224;28;20188;-77
2023/01/09 04:56:49;;;;;;;6.47;5.87;;;5.90;99.90;;;;;;4996836;28;20184;-80
2023/01/09 04:59:14;;;;;;;6.03;5.50;;;6.00;99.90;;;;;;4996983;28;20172;-77
2023/01/09 05:01:40;;;;;;;6.30;5.70;;;6.00;99.90;;;;;;4995825;28;20176;-78
2023/01/09 05:04:06;;;;;;;6.80;6.13;;;6.00;1.00;;;;;;4996358;28;20212;-78
2023/01/09 05:06:32;;;;;;;7.07;6.13;;;6.00;1.00;;;;;;4994995;28;20211;-78
2023/01/09 05:08:58;;;;;;;6.77;6.07;;;5.80;82.10;;;;;;4996490;28;20271;-77
2023/01/09 05:11:24;;;;;;;6.40;5.80;;;5.80;99.90;;;;;;4997060;28;20220;-76
2023/01/09 05:13:51;;;;;;;7.60;6.90;;;5.90;99.90;;;;;;4997204;28;20188;-78
2023/01/09 05:16:17;;;;;;;7.53;6.70;;;5.90;99.90;;;;;;4995780;28;20200;-78
2023/01/09 05:18:42;;;;;;;7.73;6.53;;;5.80;99.90;;;;;;4996506;28;20701;-79
2023/01/09 05:21:08;;;;;;;7.33;6.63;;;5.90;99.90;;;;;;4996776;28;20279;-81
2023/01/09 05:23:33;;;;;;;7.47;6.77;;;5.90;99.90;;;;;;4996837;28;20616;-80
2023/01/09 05:25:59;;;;;;;8.30;7.23;;;5.90;99.90;;;;;;4996105;28;20215;-79
2023/01/09 05:28:25;;;;;;;8.57;7.40;;;5.90;99.90;;;;;;4996467;28;20208;-77
2023/01/09 05:30:50;;;;;;;8.07;7.27;;;5.80;1.00;;;;;;4994687;28;20597;-79
2023/01/09 05:33:16;;;;;;;8.73;7.83;;;5.80;1.00;;;;;;4996715;28;20194;-79
2023/01/09 05:35:41;;;;;;;9.57;8.03;;;5.80;99.90;;;;;;4995902;28;20579;-77
2023/01/09 05:38:07;;;;;;;8.90;8.10;;;5.80;99.90;;;;;;4996526;28;20223;-79
2023/01/09 05:40:32;;;;;;;9.60;7.83;;;5.80;1.00;;;;;;4996594;28;20188;-79
2023/01/09 05:42:58;;;;;;;9.63;7.83;;;5.80;1.00;;;;;;4992769;28;20199;-78
2023/01/09 05:45:25;;;;;;;9.30;8.40;;;5.70;99.90;;;;;;4993719;28;20202;-78
2023/01/09 05:47:51;;;;;;;9.80;8.73;;;5.80;1.00;;;;;;4995493;28;20602;-79
2023/01/09 05:50:16;;;;;;;10.23;9.07;;;7.20;99.90;;;;;;5009784;28;20193;-78
2023/01/09 05:52:42;;;;;;;9.33;8.43;;;6.00;99.90;;;;;;4993676;28;20188;-78
2023/01/09 05:55:08;;;;;;;10.13;8.80;;;5.70;1.00;;;;;;4993029;28;20224;-78
2023/01/09 05:57:33;;;;;;;9.53;8.60;;;5.70;1.00;;;;;;4993317;28;20200;-78
2023/01/09 05:59:59;;;;;;;9.40;8.50;;;5.70;99.90;;;;;;4993319;28;20248;-79
2023/01/09 06:02:24;;;;;;;8.50;7.70;;;5.70;99.90;;;;;;4992931;28;20207;-78
2023/01/09 06:04:50;;;;;;;8.53;7.63;;;5.80;1.00;;;;;;4991259;28;20195;-76
2023/01/09 06:07:15;;;;;;;9.73;8.73;;;5.80;1.00;;;;;;4991341;28;20302;-78
2023/01/09 06:09:41;;;;;;;9.17;8.30;;;5.80;1.00;;;;;;4992702;28;20192;-77
2023/01/09 06:12:07;;;;;;;8.00;7.20;;;5.90;1.00;;;;;;4992096;28;20236;-78
2023/01/09 06:14:32;;;;;;;5.10;4.60;;;5.90;1.00;;;;;;4984527;28;20188;-79
2023/01/09 06:16:58;;;;;;;3.73;3.37;;;6.00;1.00;;;;;;4995018;28;20204;-79
2023/01/09 06:19:24;;;;;;;4.03;2.63;;;6.10;1.00;;;;;;4992844;28;20196;-78
2023/01/09 06:21:49;;;;;;;4.07;3.23;;;6.30;1.00;;;;;;4992945;28;20575;-80
2023/01/09 06:24:15;;;;;;;3.60;3.07;;;6.40;99.90;;;;;;4993189;28;20814;-80
2023/01/09 06:26:41;;;;;;;3.10;2.80;;;6.40;1.00;;;;;;4994094;28;20210;-79
2023/01/09 06:29:07;;;;;;;3.53;3.23;;;6.40;99.90;;;;;;4992631;28;20211;-80
2023/01/09 06:31:32;;;;;;;4.07;2.80;;;6.40;1.00;;;;;;4992676;28;21050;-77
2023/01/09 06:33:58;;;;;;;3.47;3.17;;;6.40;99.90;;;;;;4993889;28;20176;-80
2023/01/09 06:36:23;;;;;;;3.67;3.37;;;6.50;99.90;;;;;;4992942;28;20600;-79
2023/01/09 06:38:49;;;;;;;3.23;2.93;;;6.40;1.00;;;;;;5002307;28;20207;-80
2023/01/09 06:41:15;;;;;;;3.10;2.77;;;6.50;1.00;;;;;;4989356;28;20199;-80
2023/01/09 06:43:40;;;;;;;3.00;2.70;;;6.50;1.00;;;;;;4990324;28;20198;-79
2023/01/09 06:46:06;;;;;;;2.90;2.70;;;6.50;1.00;;;;;;4987495;28;20414;-78
2023/01/09 06:48:32;;;;;;;3.00;2.80;;;6.50;1.00;;;;;;4989559;28;20242;-78
2023/01/09 06:50:58;;;;;;;3.10;2.80;;;6.50;1.00;;;;;;4989851;28;20204;-78
2023/01/09 06:53:23;;;;;;;2.70;2.50;;;6.50;1.00;;;;;;4989829;28;20192;-79
2023/01/09 06:55:49;;;;;;;2.47;2.27;;;6.50;55.20;;;;;;4990713;28;20219;-79
2023/01/09 06:58:15;;;;;;;2.77;2.20;;;6.60;1.00;;;;;;4991816;28;20215;-78
2023/01/09 07:00:40;;;;;;;2.77;2.10;;;6.50;1.00;;;;;;4991644;28;20188;-78
2023/01/09 07:03:06;;;;;;;2.73;2.50;;;6.50;99.90;;;;;;4990913;28;20250;-78
2023/01/09 07:05:40;;;;;;;1.90;1.80;;;6.50;1.00;;;;;;4991643;28;20188;-77
2023/01/09 07:08:06;;;;;;;2.83;1.97;;;6.60;99.90;;;;;;4992388;28;20263;-78
2023/01/09 07:10:32;;;;;;;2.33;2.00;;;6.60;1.00;;;;;;4989674;28;20200;-79
2023/01/09 07:12:57;;;;;;;1.93;1.83;;;6.60;1.00;;;;;;4990526;28;20184;-78
2023/01/09 07:15:23;;;;;;;2.40;2.20;;;6.60;1.00;;;;;;4989963;28;20271;-77
2023/01/09 07:17:52;;;;;;;3.07;1.90;;;6.60;99.90;;;;;;4990166;28;20310;-77
2023/01/09 07:20:19;;;;;;;2.83;1.93;;;6.60;99.90;;;;;;4990935;28;20257;-78
2023/01/09 07:22:45;;;;;;;2.50;2.07;;;6.60;1.00;;;;;;4991101;28;21143;-80
2023/01/09 07:25:11;;;;;;;2.27;2.07;;;6.60;1.00;;;;;;4991019;28;20222;-79
2023/01/09 07:27:37;;;;;;;2.67;2.10;;;6.60;1.00;;;;;;4990920;28;20243;-79
2023/01/09 07:30:04;;;;;;;2.40;1.97;;;6.60;99.90;;;;;;4988927;28;20188;-77
2023/01/09 07:32:30;;;;;;;2.57;1.90;;;6.60;99.90;;;;;;4989115;28;20196;-77
2023/01/09 07:34:56;;;;;;;2.20;2.00;;;6.50;99.90;;;;;;4984419;28;20184;-77
2023/01/09 07:37:21;;;;;;;4.93;2.13;;;6.60;1.00;;;;;;4989794;28;20273;-80
2023/01/09 07:39:47;;;;;;;2.63;2.17;;;6.60;1.00;;;;;;4989229;28;20287;-80
2023/01/09 07:42:13;;;;;;;3.33;2.17;;;6.50;1.00;;;;;;4990146;28;20187;-77
2023/01/09 07:44:39;;;;;;;2.77;2.47;;;6.50;99.90;;;;;;4989670;28;20269;-78
2023/01/09 07:47:04;;;;;;;2.47;2.03;;;6.50;99.90;;;;;;4987834;28;20819;-80
2023/01/09 07:49:30;;;;;;;2.73;2.10;;;6.40;17.80;;;;;;4990777;28;20184;-79
2023/01/09 07:51:55;;;;;;;3.40;2.77;;;6.40;1.00;;;;;;4989782;28;20196;-78
2023/01/09 07:54:21;;;;;;;3.70;2.57;;;6.20;1.00;;;;;;4988797;28;20199;-82
2023/01/09 07:56:47;;;;;;;2.77;2.57;;;6.20;1.00;;;;;;4987497;28;20196;-77
2023/01/09 07:59:12;;;;;;;2.60;2.40;;;6.10;1.00;;;;;;4988301;28;20611;-80
2023/01/09 08:01:38;;;;;;;4.17;2.80;;;6.00;1.00;;;;;;4990782;28;20789;-78
2023/01/09 08:04:03;;;;;;;4.83;3.00;;;6.00;1.00;;;;;;4989842;28;20191;-78
2023/01/09 08:06:30;;;;;;;3.20;2.87;;;5.90;1.00;;;;;;4989579;28;20212;-77
2023/01/09 08:08:56;;;;;;;4.77;2.90;;;5.90;1.00;;;;;;4989141;28;20258;-77
2023/01/09 08:11:22;;;;;;;3.23;2.60;;;5.80;1.00;;;;;;4988669;28;20200;-77
2023/01/09 08:13:47;;;;;;;3.07;2.77;;;5.80;1.00;;;;;;4988794;28;20203;-77
2023/01/09 08:16:13;;;;;;;5.43;3.10;;;5.70;1.00;;;;;;4988986;28;20204;-77
2023/01/09 08:18:39;;;;;;;6.43;2.80;;;5.70;1.00;;;;;;4990324;28;20226;-80
2023/01/09 08:21:05;;;;;;;4.90;3.40;;;5.70;1.00;;;;;;4989621;28;20200;-78
2023/01/09 08:23:30;;;;;;;7.90;3.40;;;5.60;99.90;;;;;;4989476;28;20636;-79
2023/01/09 08:25:56;;;;;;;4.43;3.50;;;5.70;1.00;;;;;;4988642;28;20203;-79
2023/01/09 08:28:22;;;;;;;6.60;3.40;;;5.60;99.90;;;;;;4986051;28;20208;-78
2023/01/09 08:30:48;;;;;;;5.90;4.00;;;5.70;99.90;;;;;;4982889;28;20662;-79
2023/01/09 08:33:13;;;;;;;5.43;3.50;;;5.60;99.90;;;;;;4989491;28;20192;-81
2023/01/09 08:35:39;;;;;;;5.73;3.30;;;5.60;99.90;;;;;;4989274;28;21002;-80
2023/01/09 08:38:04;;;;;;;12.43;5.17;;;5.60;99.90;;;;;;4987041;28;20713;-80
2023/01/09 08:40:30;;;;;;;6.93;4.10;;;5.60;99.90;;;;;;4988993;28;20203;-78
2023/01/09 08:48:24;;;;;;;115.70;18.93;;;5.70;1.00;;;;;;4986232;28;20253;-80
2023/01/09 08:50:51;;;;;;;90.27;13.37;;;5.60;99.90;;;;;;4986116;28;20184;-79
2023/01/09 08:53:16;;;;;;;85.97;13.37;;;5.60;1.00;;;;;;4984530;28;20232;-78
2023/01/09 08:55:42;;;;;;;90.20;17.60;;;5.60;1.00;;;;;;4986566;28;20276;-78
2023/01/09 08:58:07;;;;;;;66.50;12.07;;;5.60;1.00;;;;;;4989459;28;20208;-80
2023/01/09 09:00:33;;;;;;;54.80;12.33;;;5.70;1.00;;;;;;4989798;28;20196;-79
2023/01/09 09:03:00;;;;;;;40.33;8.37;;;5.70;1.00;;;;;;4988327;28;20189;-77
2023/01/09 09:05:27;;;;;;;223.90;27.97;;;5.70;1.00;;;;;;4990875;28;20705;-79
2023/01/09 09:07:54;;;;;;;66.17;11.43;;;5.70;1.00;;;;;;4991750;28;20220;-79
2023/01/09 09:10:21;;;;;;;112.53;18.73;;;5.50;1.00;;;;;;4989578;28;20195;-78
2023/01/09 09:12:52;;;;;;;170.77;19.03;;;5.40;1.00;;;;;;4991939;28;20195;-77
2023/01/09 09:15:23;;;;;;;220.60;30.23;;;5.40;1.00;;;;;;4993321;28;20180;-79
2023/01/09 09:17:54;;;;;;;195.50;24.17;;;5.70;1.00;;;;;;4989752;28;20209;-77
2023/01/09 09:20:22;;;;;;;82.97;11.07;;;5.70;1.00;;;;;;4993117;28;20192;-79
2023/01/09 09:22:48;;;;;;;78.10;12.27;;;5.60;1.00;;;;;;4992132;28;20205;-78
2023/01/09 09:25:14;;;;;;;196.27;21.77;;;5.60;1.00;;;;;;4993623;28;20184;-78
2023/01/09 09:27:40;;;;;;;167.30;21.60;;;5.60;1.00;;;;;;4992542;28;20212;-78
2023/01/09 09:30:07;;;;;;;406.90;41.73;;;5.70;1.00;;;;;;4991281;28;20195;-79
2023/01/09 09:32:33;;;;;;;102.30;16.03;;;5.70;1.00;;;;;;4992913;28;20186;-78
2023/01/09 09:34:59;;;;;;;50.43;9.10;;;5.60;1.00;;;;;;4992768;28;20187;-80
2023/01/09 09:37:24;;;;;;;32.97;7.83;;;5.50;1.00;;;;;;4992275;28;20493;-79
2023/01/09 09:39:50;;;;;;;44.20;10.27;;;5.40;1.00;;;;;;4991518;28;20188;-79
2023/01/09 09:45:45;;;;;;;12.47;4.83;;;5.70;70.30;;;;;;4992809;28;20187;-78
2023/01/09 09:48:22;;;;;;;12.77;4.20;;;5.80;1.00;;;;;;4992923;28;20208;-78
2023/01/09 09:51:03;;;;;;;6.67;3.47;;;5.60;1.00;;;;;;5001491;28;20184;-78
2023/01/09 09:53:31;;;;;;;5.80;2.67;;;6.00;1.00;;;;;;4989835;28;20180;-78
2023/01/09 09:55:56;;;;;;;3.47;1.70;;;6.20;1.00;;;;;;4990492;28;20207;-78
2023/01/09 09:58:27;;;;;;;2.30;1.43;;;6.30;1.00;;;;;;4987561;28;20772;-78
2023/01/09 10:00:54;;;;;;;4.87;1.63;;;6.40;99.90;;;;;;4987532;28;20188;-78
2023/01/09 10:03:29;;;;;;;4.20;1.60;;;6.50;99.90;;;;;;4988451;28;20205;-78
2023/01/09 10:05:57;;;;;;;3.20;1.30;;;6.70;99.90;;;;;;4989907;28;20223;-79
2023/01/09 10:08:52;;;;;;;2.27;1.10;;;6.70;99.90;;;;;;4990016;28;20283;-76
2023/01/09 10:11:27;;;;;;;2.67;1.40;;;6.70;99.90;;;;;;4990990;28;20813;-78
2023/01/09 10:14:05;;;;;;;3.07;1.03;;;6.80;99.90;;;;;;4991732;28;20180;-79
2023/01/09 10:16:45;;;;;;;6.07;1.33;;;7.00;99.90;;;;;;4991154;28;20628;-78
2023/01/09 10:19:55;;;;;;;2.23;1.00;;;7.10;99.90;;;;;;4991686;28;20202;-79
2023/01/09 10:22:35;;;;;;;1.10;0.80;;;7.10;99.90;;;;;;4990387;28;20216;-78
2023/01/09 10:25:04;;;;;;;1.93;0.90;;;7.20;94.60;;;;;;4992115;28;20202;-79
2023/01/09 10:27:55;;;;;;;2.50;1.00;;;7.20;95.90;;;;;;4980770;28;20341;-78
2023/01/09 10:30:44;;;;;;;2.63;0.83;;;7.30;84.80;;;;;;4989025;28;20545;-78
2023/01/09 10:33:28;;;;;;;2.67;0.60;;;7.30;61.80;;;;;;4990569;28;20216;-78
2023/01/09 10:36:03;;;;;;;2.10;0.77;;;7.40;54.20;;;;;;5004880;28;20647;-78
2023/01/09 10:38:34;;;;;;;2.63;1.10;;;7.40;53.70;;;;;;4991116;28;20221;-78
2023/01/09 10:41:28;;;;;;;2.17;0.80;;;7.40;59.00;;;;;;4989016;28;20180;-78
2023/01/09 10:44:23;;;;;;;1.83;0.67;;;7.30;50.40;;;;;;4987456;28;20283;-79
2023/01/09 10:46:53;;;;;;;2.13;0.80;;;7.30;52.70;;;;;;4986996;28;20235;-79
2023/01/09 10:49:20;;;;;;;1.70;0.70;;;7.40;51.70;;;;;;4990001;28;20187;-79
2023/01/09 10:51:50;;;;;;;2.10;0.90;;;7.40;53.20;;;;;;4988873;28;20200;-78
2023/01/09 10:54:20;;;;;;;1.90;0.80;;;7.50;31.60;;;;;;4990643;28;20557;-79
2023/01/09 10:56:54;;;;;;;2.60;1.00;;;7.50;35.50;;;;;;4988979;28;20242;-81
2023/01/09 10:59:20;;;;;;;2.77;0.80;;;7.50;33.10;;;;;;4988200;28;20564;-80
2023/01/09 11:01:46;;;;;;;2.87;0.77;;;7.40;29.40;;;;;;4989604;28;20356;-80
2023/01/09 11:04:28;;;;;;;1.97;1.60;;;7.40;31.70;;;;;;4989782;28;20609;-80
2023/01/09 11:06:58;;;;;;;3.53;1.10;;;7.20;43.40;;;;;;4986387;28;20214;-78
2023/01/09 11:09:25;;;;;;;1.13;0.80;;;7.10;52.30;;;;;;4987990;28;20240;-78
2023/01/09 11:11:51;;;;;;;3.23;0.90;;;7.10;44.00;;;;;;4988193;28;20218;-80
2023/01/09 11:14:26;;;;;;;3.90;0.80;;;7.00;52.90;;;;;;4987656;28;20654;-78
2023/01/09 11:16:54;;;;;;;3.77;0.80;;;6.90;60.10;;;;;;4989550;28;20183;-79
2023/01/09 11:19:20;;;;;;;0.87;0.40;;;6.80;84.30;;;;;;4984189;28;20192;-78
2023/01/09 11:21:46;;;;;;;2.83;0.70;;;7.00;45.40;;;;;;4986799;28;20186;-77
2023/01/09 11:24:18;;;;;;;2.30;0.67;;;7.10;48.30;;;;;;4987635;28;20569;-78
2023/01/09 11:26:45;;;;;;;1.63;0.53;;;7.20;34.80;;;;;;4988288;28;20208;-80
2023/01/09 11:29:15;;;;;;;1.40;0.70;;;7.30;29.50;;;;;;4990500;28;20251;-79
2023/01/09 11:31:49;;;;;;;0.83;0.40;;;7.30;27.80;;;;;;4985993;28;20172;-79
2023/01/09 11:34:17;;;;;;;2.63;0.70;;;7.30;22.80;;;;;;4986783;28;20195;-78
2023/01/09 11:36:44;;;;;;;1.03;0.50;;;7.40;15.10;;;;;;4987732;28;20207;-79
2023/01/09 11:39:26;;;;;;;0.80;0.43;;;7.40;16.50;;;;;;4988220;28;20212;-78
2023/01/09 11:41:54;;;;;;;3.20;0.83;;;7.30;17.80;;;;;;4987416;28;20255;-79
2023/01/09 11:44:20;;;;;;;1.23;0.50;;;7.20;21.20;;;;;;4988216;28;20258;-78
2023/01/09 11:46:46;;;;;;;2.63;0.60;;;7.20;18.50;;;;;;4989037;28;20561;-79
2023/01/09 11:49:16;;;;;;;3.17;0.90;;;7.30;18.80;;;;;;4989238;28;20254;-78
2023/01/09 11:51:43;;;;;;;1.57;1.00;;;7.40;20.60;;;;;;4988531;28;20199;-80
2023/01/09 11:54:27;;;;;;;1.93;0.60;;;7.50;15.90;;;;;;4989536;28;20180;-79
2023/01/09 11:56:54;;;;;;;2.57;0.60;;;7.60;12.90;;;;;;4988963;28;20642;-77
2023/01/09 11:59:24;;;;;;;1.67;0.67;;;7.70;11.70;;;;;;4989684;28;20200;-79
2023/01/09 12:02:04;;;;;;;3.07;1.00;;;7.70;4.50;;;;;;4988283;28;20276;-78
2023/01/09 12:04:46;;;;;;;1.37;0.80;;;7.70;1.00;;;;;;4983190;28;20242;-78
2023/01/09 12:07:42;;;;;;;1.63;0.73;;;7.70;1.00;;;;;;4989096;28;20228;-78
2023/01/09 12:10:16;;;;;;;1.77;0.57;;;7.70;1.00;;;;;;4988958;28;20203;-79
2023/01/09 12:12:59;;;;;;;1.90;0.80;;;7.70;1.00;;;;;;4989774;28;20188;-78
2023/01/09 12:15:43;;;;;;;0.80;0.70;;;7.70;1.00;;;;;;4990244;28;20612;-79
2023/01/09 12:18:22;;;;;;;1.50;0.80;;;7.70;1.00;;;;;;4989692;28;20216;-79
2023/01/09 12:21:06;;;;;;;1.30;0.67;;;7.70;1.00;;;;;;4990204;28;20546;-79
2023/01/09 12:24:09;;;;;;;1.70;0.80;;;7.70;1.00;;;;;;5005263;28;20184;-79
2023/01/09 12:26:46;;;;;;;1.80;1.00;;;7.70;1.00;;;;;;4990072;28;20234;-78
2023/01/09 12:29:30;;;;;;;1.03;0.87;;;7.80;1.00;;;;;;4988993;28;20279;-79
2023/01/09 12:32:20;;;;;;;1.83;0.80;;;7.80;1.00;;;;;;4987662;28;20388;-79
2023/01/09 12:34:55;;;;;;;3.23;0.93;;;7.80;1.00;;;;;;5003537;28;20347;-79
2023/01/09 12:37:24;;;;;;;1.23;0.73;;;7.80;1.00;;;;;;4987593;28;20208;-79
2023/01/09 12:40:05;;;;;;;2.47;0.80;;;7.80;1.00;;;;;;4990140;28;20208;-78
2023/01/09 12:43:09;;;;;;;3.27;0.90;;;7.80;1.00;;;;;;4991843;28;20605;-79
2023/01/09 12:45:57;;;;;;;1.30;0.90;;;7.80;1.00;;;;;;4992824;28;20192;-79
2023/01/09 12:48:51;;;;;;;5.33;1.87;;;7.80;1.00;;;;;;4992981;28;20208;-78
2023/01/09 12:51:27;;;;;;;2.87;1.10;;;7.80;1.00;;;;;;4993321;28;20184;-78
2023/01/09 12:54:18;;;;;;;1.20;1.10;;;7.80;1.00;;;;;;5007502;28;20231;-80
2023/01/09 12:56:55;;;;;;;1.63;0.90;;;7.80;1.00;;;;;;4992444;28;20184;-80
2023/01/09 12:59:37;;;;;;;2.13;0.93;;;7.80;1.00;;;;;;4989254;28;20743;-78
2023/01/09 13:02:06;;;;;;;2.27;2.00;;;7.80;1.00;;;;;;4988479;28;20204;-79
2023/01/09 13:04:39;;;;;;;2.73;1.37;;;7.80;1.00;;;;;;4989333;28;20194;-78
2023/01/09 13:07:14;;;;;;;1.77;0.87;;;7.90;1.00;;;;;;4985819;28;20503;-79
2023/01/09 13:09:49;;;;;;;243.43;24.87;;;7.90;1.00;;;;;;4985364;28;20207;-80
2023/01/09 13:12:20;;;;;;;77.90;9.07;;;7.90;1.00;;;;;;4986627;28;20660;-77
2023/01/09 13:15:06;;;;;;;308.63;29.80;;;8.00;1.00;;;;;;4987826;28;20785;-80
2023/01/09 13:17:52;;;;;;;82.07;10.80;;;8.00;1.00;;;;;;4991080;28;20299;-80
2023/01/09 13:20:23;;;;;;;119.63;15.50;;;8.10;1.00;;;;;;4990958;28;20176;-78
2023/01/09 13:22:51;;;;;;;85.90;12.63;;;8.10;1.00;;;;;;4991436;28;20188;-78
2023/01/09 13:25:33;;;;;;;67.27;9.67;;;8.20;1.00;;;;;;4989895;28;21145;-79
2023/01/09 13:28:22;;;;;;;10.93;2.53;;;8.10;1.00;;;;;;5005846;28;20648;-78